Terminal Aerodrome Forecast
Issued by NWS Melbourne, FL

Home | Current Version | Previous Version | Text Only | Print | Product List | Glossary On
Versions: 1 2 3 4 5 6 7 8 9 10 11 12 13
000
FTUS42 KMLB 311700
TAFVRB
TAF
KVRB 311724Z 3118/0118 13009KT P6SM VCTS SCT040CB BKN050 BKN070
      TEMPO 3118/3120 3SM TSRA BKN035CB
     FM312200 14007KT P6SM SCT040 BKN120
     FM010100 18006KT P6SM SCT060 BKN250
     FM011400 21007KT P6SM FEW015 SCT250=

USA.gov is the U.S. government's official web portal to all federal, state and local government web resources and services.